Time;durP1;ratioP1;P1;durP2;ratioP2;P2;SDS_P1;SDS_P2;PMS_P1;PMS_P2;Temp;Humidity;BMP_temperature;BMP_pressure;BME280_temperature;BME280_humidity;BME280_pressure;Samples;Min_cycle;Max_cycle;Signal;HPM_P1;HPM_P2
2023/06/10 00:00:41;;;;;;;184.25;66.60;;;;;;;21.04;49.44;101716.53;5010806;28;20022;-70
2023/06/10 00:03:06;;;;;;;185.13;67.50;;;;;;;21.04;49.28;101720.03;5010417;28;20038;-70
2023/06/10 00:05:31;;;;;;;182.15;64.60;;;;;;;21.04;49.09;101724.50;5010491;28;20022;-70
2023/06/10 00:07:57;;;;;;;187.23;67.82;;;;;;;21.06;49.17;101718.16;5011291;28;20038;-70
2023/06/10 00:10:24;;;;;;;177.15;68.18;;;;;;;21.03;49.04;101728.91;5010722;28;20025;-70
2023/06/10 00:12:49;;;;;;;183.73;67.22;;;;;;;21.04;49.05;101729.81;5011269;28;20045;-70
2023/06/10 00:15:15;;;;;;;179.48;65.38;;;;;;;21.02;49.27;101721.88;5015707;28;20029;-70
2023/06/10 00:17:40;;;;;;;179.77;64.35;;;;;;;21.02;49.13;101721.88;5005809;23;20089;-66
2023/06/10 00:20:11;;;;;;;186.52;69.10;;;;;;;21.01;49.11;101720.19;5002897;28;20034;-66
2023/06/10 00:22:37;;;;;;;181.05;64.93;;;;;;;21.00;49.08;101720.25;4995193;28;20034;-66
2023/06/10 00:25:03;;;;;;;187.60;67.32;;;;;;;21.01;48.92;101720.19;4994254;28;20033;-66
2023/06/10 00:27:34;;;;;;;184.68;66.20;;;;;;;21.01;49.29;101720.19;4994241;28;20018;-66
2023/06/10 00:30:00;;;;;;;186.18;65.50;;;;;;;21.01;48.93;101720.19;4995576;28;20037;-66
2023/06/10 00:32:25;;;;;;;181.93;65.03;;;;;;;21.01;48.93;101712.22;4994932;28;20091;-66
2023/06/10 00:34:51;;;;;;;179.70;65.25;;;;;;;20.98;49.12;101714.97;4994414;28;20033;-66
2023/06/10 00:37:16;;;;;;;185.15;65.38;;;;;;;21.00;48.99;101710.47;4993632;28;20053;-66
2023/06/10 00:39:41;;;;;;;181.73;63.75;;;;;;;20.97;49.09;101712.38;4995842;28;20018;-66
2023/06/10 00:42:07;;;;;;;185.27;67.70;;;;;;;20.96;48.99;101711.53;4995676;28;20037;-66
2023/06/10 00:44:32;;;;;;;181.77;64.53;;;;;;;20.98;49.13;101717.63;4995563;28;20038;-66
2023/06/10 00:46:58;;;;;;;198.60;69.68;;;;;;;20.98;48.99;101714.97;4994578;28;20058;-66
2023/06/10 00:49:23;;;;;;;183.55;66.35;;;;;;;20.96;49.06;101719.50;4993928;28;20105;-66
2023/06/10 00:51:49;;;;;;;181.75;65.47;;;;;;;20.93;48.92;101719.66;4995460;28;20023;-66
2023/06/10 00:54:15;;;;;;;201.30;68.72;;;;;;;20.93;48.95;101724.97;4995286;28;20037;-66
2023/06/10 00:56:42;;;;;;;182.95;65.45;;;;;;;20.92;49.07;101720.56;5008863;28;20031;-66
2023/06/10 00:59:08;;;;;;;182.93;65.50;;;;;;;20.94;48.92;101724.00;5002472;28;20076;-66
2023/06/10 01:01:33;;;;;;;185.00;66.50;;;;;;;20.92;49.10;101720.56;5010497;28;20031;-66
2023/06/10 01:03:59;;;;;;;185.30;66.07;;;;;;;20.90;48.90;101730.38;4995373;28;20030;-66
2023/06/10 01:06:49;;;;;;;182.73;65.75;;;;;;;20.89;48.75;101731.34;4994229;28;20029;-66
2023/06/10 01:09:37;;;;;;;183.85;66.00;;;;;;;20.91;49.12;101724.16;4988237;28;20066;-66
2023/06/10 01:12:12;;;;;;;184.15;66.60;;;;;;;20.89;49.08;101726.03;5010400;28;20499;-66
2023/06/10 01:14:38;;;;;;;183.98;67.18;;;;;;;20.87;48.86;101730.53;4995112;28;20026;-66
2023/06/10 01:17:04;;;;;;;182.75;65.85;;;;;;;20.86;49.33;101726.13;4990630;28;20439;-66
2023/06/10 01:19:31;;;;;;;188.23;68.40;;;;;;;20.85;49.25;101730.59;4993933;28;20030;-66
2023/06/10 01:22:00;;;;;;;185.45;67.32;;;;;;;20.83;49.18;101728.94;4994681;28;20495;-66
2023/06/10 01:24:26;;;;;;;187.07;66.03;;;;;;;20.82;49.32;101729.84;5009452;28;20030;-66
2023/06/10 01:26:53;;;;;;;178.30;65.80;;;;;;;20.81;49.20;101728.16;5007861;28;20392;-66
2023/06/10 01:29:31;;;;;;;178.43;65.20;;;;;;;20.82;49.33;101738.69;4987573;28;20022;-66
2023/06/10 01:32:05;;;;;;;179.80;64.28;;;;;;;20.80;49.43;101737.03;5009932;28;20101;-66
2023/06/10 01:34:31;;;;;;;181.77;65.20;;;;;;;20.77;49.09;101736.22;4993154;28;20495;-67
2023/06/10 01:36:57;;;;;;;188.93;67.07;;;;;;;20.76;49.52;101745.13;5008706;28;20084;-66
2023/06/10 01:39:24;;;;;;;186.43;66.65;;;;;;;20.73;49.40;101739.94;5009812;28;20022;-66
2023/06/10 01:41:49;;;;;;;184.88;67.43;;;;;;;20.72;49.56;101740.00;5009735;28;20030;-66
2023/06/10 01:44:19;;;;;;;202.93;69.25;;;;;;;20.72;49.33;101740.88;4993338;28;20394;-66
2023/06/10 01:46:45;;;;;;;183.77;66.82;;;;;;;20.70;49.28;101737.41;5007375;28;20403;-66
2023/06/10 01:49:10;;;;;;;185.60;67.63;;;;;;;20.70;49.38;101734.75;4987011;28;20113;-66
2023/06/10 01:51:36;;;;;;;185.40;66.82;;;;;;;20.67;49.57;101737.53;4993105;28;20122;-66
2023/06/10 01:54:01;;;;;;;184.48;65.35;;;;;;;20.67;49.27;101732.22;4993053;28;20030;-66
2023/06/10 01:56:26;;;;;;;185.10;65.63;;;;;;;20.66;49.44;101735.78;4993605;28;20026;-65
2023/06/10 01:58:54;;;;;;;187.88;68.20;;;;;;;20.66;49.52;101734.94;4992424;28;20034;-66
2023/06/10 02:01:20;;;;;;;188.48;66.63;;;;;;;20.63;49.65;101741.22;4994290;28;20046;-66
2023/06/10 02:03:45;;;;;;;177.10;66.25;;;;;;;20.62;49.54;101733.34;4994494;28;20183;-66
2023/06/10 02:06:10;;;;;;;186.60;67.57;;;;;;;20.61;49.52;101729.81;4993770;28;20462;-66
2023/06/10 02:08:36;;;;;;;183.88;65.50;;;;;;;20.60;49.44;101730.72;4985417;28;20557;-67
2023/06/10 02:11:01;;;;;;;181.65;65.38;;;;;;;20.59;49.71;101718.41;4994002;28;20103;-66
2023/06/10 02:13:26;;;;;;;179.60;65.80;;;;;;;20.58;49.05;101717.53;4994348;28;20503;-65
2023/06/10 02:15:53;;;;;;;183.35;65.30;;;;;;;20.57;49.54;101725.56;4993781;28;20061;-67
2023/06/10 02:18:20;;;;;;;183.25;66.90;;;;;;;20.55;49.76;101730.94;4993454;28;20030;-67
2023/06/10 02:20:46;;;;;;;185.43;65.00;;;;;;;20.55;49.74;101732.72;4992471;28;20037;-67
2023/06/10 02:23:11;;;;;;;185.00;66.65;;;;;;;20.55;49.70;101732.72;5008965;28;20018;-67
2023/06/10 02:25:36;;;;;;;183.43;66.22;;;;;;;20.54;49.75;101737.16;4993519;28;20022;-67
2023/06/10 02:28:03;;;;;;;175.15;63.40;;;;;;;20.54;49.50;101734.50;4993045;28;20506;-66
2023/06/10 02:30:28;;;;;;;182.70;66.28;;;;;;;20.53;49.79;101734.56;4993679;28;20088;-67
2023/06/10 02:32:55;;;;;;;184.05;65.85;;;;;;;20.52;49.65;101744.34;4993951;28;20022;-67
2023/06/10 02:35:22;;;;;;;186.82;66.03;;;;;;;20.52;49.75;101740.81;4991661;28;20566;-67
2023/06/10 02:37:47;;;;;;;181.18;65.25;;;;;;;20.51;49.85;101737.28;4985296;28;20477;-67
2023/06/10 02:40:13;;;;;;;187.65;67.05;;;;;;;20.52;49.84;101730.19;4993966;28;20036;-67
2023/06/10 02:42:38;;;;;;;179.38;64.15;;;;;;;20.51;49.84;101736.44;4992887;28;20155;-66
2023/06/10 02:45:04;;;;;;;182.45;65.43;;;;;;;20.50;49.72;101743.53;4992555;28;20193;-67
2023/06/10 02:47:30;;;;;;;183.27;64.82;;;;;;;20.50;49.96;101740.03;4991257;28;20559;-67
2023/06/10 02:49:55;;;;;;;185.27;66.57;;;;;;;20.49;49.66;101740.94;4993307;28;20054;-66
2023/06/10 02:52:20;;;;;;;183.20;66.43;;;;;;;20.48;49.69;101747.16;4992169;28;20055;-67
2023/06/10 02:54:46;;;;;;;183.38;66.65;;;;;;;20.48;49.72;101742.75;4992683;28;20018;-66
2023/06/10 02:57:11;;;;;;;183.15;64.95;;;;;;;20.48;50.01;101739.19;4991448;28;20026;-67
2023/06/10 02:59:36;;;;;;;183.88;65.82;;;;;;;20.47;49.99;101741.00;5008426;28;20105;-66
2023/06/10 03:02:02;;;;;;;183.80;66.05;;;;;;;20.47;49.82;101741.00;4992954;28;20027;-66
2023/06/10 03:04:28;;;;;;;187.63;65.18;;;;;;;20.46;49.88;101744.56;4992941;28;20164;-67
2023/06/10 03:06:54;;;;;;;181.65;64.47;;;;;;;20.46;49.93;101743.72;4991728;28;20041;-67
2023/06/10 03:09:19;;;;;;;187.70;67.07;;;;;;;20.47;49.96;101750.75;4992966;28;20034;-67
2023/06/10 03:11:45;;;;;;;183.40;65.97;;;;;;;20.46;49.82;101749.03;4993088;28;20396;-66
2023/06/10 03:14:10;;;;;;;198.85;67.53;;;;;;;20.46;49.54;101744.56;4992866;28;20116;-66
2023/06/10 03:16:35;;;;;;;185.73;66.10;;;;;;;20.46;49.66;101754.34;4990788;28;20022;-67
2023/06/10 03:19:01;;;;;;;182.57;64.78;;;;;;;20.46;50.02;101755.19;4992858;28;20030;-69
2023/06/10 03:21:27;;;;;;;182.48;66.40;;;;;;;20.46;49.89;101754.34;4992655;28;20395;-66
2023/06/10 03:23:52;;;;;;;188.23;66.55;;;;;;;20.46;49.55;101754.34;4992751;28;20557;-67
2023/06/10 03:26:21;;;;;;;186.55;67.32;;;;;;;20.46;49.68;101749.03;4990338;28;20025;-67
2023/06/10 03:28:46;;;;;;;183.45;65.47;;;;;;;20.45;49.65;101745.53;4991510;28;20026;-66
2023/06/10 03:31:12;;;;;;;182.85;65.13;;;;;;;20.47;49.65;101745.47;4992643;28;20030;-66
2023/06/10 03:33:37;;;;;;;187.02;66.88;;;;;;;20.46;49.87;101749.03;4992629;28;20110;-66
2023/06/10 03:36:02;;;;;;;192.57;67.88;;;;;;;20.45;49.92;101748.19;4990679;28;20467;-67
2023/06/10 03:38:28;;;;;;;181.65;66.07;;;;;;;20.46;49.81;101747.22;4992859;28;20048;-67
2023/06/10 03:40:53;;;;;;;182.32;66.57;;;;;;;20.46;49.69;101754.34;4992480;28;20554;-67
2023/06/10 03:43:18;;;;;;;189.27;66.30;;;;;;;20.44;49.97;101752.59;4991456;28;20390;-67
2023/06/10 03:45:45;;;;;;;185.35;65.88;;;;;;;20.47;49.75;101750.75;4991259;28;20141;-66
2023/06/10 03:48:10;;;;;;;183.68;65.88;;;;;;;20.47;49.76;101748.13;4991540;28;20026;-67
2023/06/10 03:50:36;;;;;;;183.63;63.85;;;;;;;20.47;49.74;101750.75;5007592;28;20081;-66
2023/06/10 03:53:01;;;;;;;174.30;61.97;;;;;;;20.46;49.74;101754.34;4991402;28;20022;-67
2023/06/10 03:55:27;;;;;;;184.23;66.03;;;;;;;20.45;49.69;101750.84;4991427;28;20026;-67
2023/06/10 03:57:52;;;;;;;185.93;68.07;;;;;;;20.45;49.73;101753.50;4991824;28;20045;-67
2023/06/10 04:00:18;;;;;;;184.27;65.88;;;;;;;20.44;49.64;101752.59;5006930;28;20490;-66
2023/06/10 04:02:47;;;;;;;183.57;64.70;;;;;;;20.46;49.80;101749.03;4990719;28;20073;-66
2023/06/10 04:05:13;;;;;;;189.85;65.00;;;;;;;20.46;49.42;101744.56;4991141;28;20049;-66
2023/06/10 04:07:40;;;;;;;183.25;64.93;;;;;;;20.47;49.91;101751.63;4990726;28;20026;-66
2023/06/10 04:10:06;;;;;;;185.55;65.65;;;;;;;20.47;49.74;101751.63;4992016;28;20066;-67
2023/06/10 04:12:32;;;;;;;190.35;68.25;;;;;;;20.49;49.88;101748.91;4991942;28;20110;-66
2023/06/10 04:14:57;;;;;;;185.68;65.63;;;;;;;20.48;49.41;101747.16;4991935;28;20027;-66
2023/06/10 04:17:22;;;;;;;180.55;64.25;;;;;;;20.48;49.88;101741.84;4989459;28;20026;-67
2023/06/10 04:19:48;;;;;;;181.05;64.43;;;;;;;20.48;49.74;101742.75;4991989;28;20389;-66
2023/06/10 04:22:13;;;;;;;189.02;65.45;;;;;;;20.48;49.65;101741.84;4990687;28;20093;-67
2023/06/10 04:24:38;;;;;;;186.85;65.18;;;;;;;20.49;49.87;101743.59;4996363;28;20030;-66
2023/06/10 04:27:05;;;;;;;194.30;66.57;;;;;;;20.50;49.73;101747.97;4996883;28;20029;-67
2023/06/10 04:29:30;;;;;;;187.57;64.50;;;;;;;20.50;49.56;101740.03;4996970;28;20249;-66
2023/06/10 04:31:56;;;;;;;184.50;65.38;;;;;;;20.50;49.81;101748.81;5013420;28;20557;-67
2023/06/10 04:34:21;;;;;;;192.82;66.35;;;;;;;20.50;49.74;101742.66;4996337;28;20018;-66
2023/06/10 04:36:46;;;;;;;178.20;64.97;;;;;;;20.50;49.81;101746.19;4997108;28;20484;-66
2023/06/10 04:39:12;;;;;;;181.13;65.72;;;;;;;20.50;49.99;101740.88;4993040;28;20045;-67
2023/06/10 04:41:37;;;;;;;182.95;65.88;;;;;;;20.52;49.76;101747.00;5006802;28;20035;-67
2023/06/10 04:44:02;;;;;;;184.27;65.63;;;;;;;20.52;49.53;101743.44;4991724;28;20583;-67
2023/06/10 04:46:30;;;;;;;183.60;64.90;;;;;;;20.52;49.71;101744.34;4990648;28;20029;-67
2023/06/10 04:48:55;;;;;;;194.40;67.28;;;;;;;20.54;49.55;101746.91;4990650;28;20030;-67
2023/06/10 04:51:21;;;;;;;182.00;64.82;;;;;;;20.54;49.52;101746.91;4991953;28;20088;-66
2023/06/10 04:53:46;;;;;;;186.90;65.57;;;;;;;20.54;49.57;101741.63;5006581;28;20499;-67
2023/06/10 04:56:11;;;;;;;186.35;67.03;;;;;;;20.53;49.74;101738.09;4991565;28;20419;-67
2023/06/10 04:58:37;;;;;;;182.00;65.80;;;;;;;20.53;49.29;101745.19;4991932;28;20157;-66
2023/06/10 05:01:02;;;;;;;181.00;63.53;;;;;;;20.54;49.27;101744.28;4994494;28;20029;-66
2023/06/10 05:03:28;;;;;;;182.98;66.25;;;;;;;20.54;49.25;101739.81;4995357;28;20030;-66
2023/06/10 05:05:53;;;;;;;185.50;65.70;;;;;;;20.55;49.53;101746.00;4995383;28;20157;-67
2023/06/10 05:08:20;;;;;;;180.43;65.15;;;;;;;20.55;49.44;101743.34;4995279;28;20377;-67
2023/06/10 05:10:45;;;;;;;182.82;65.75;;;;;;;20.55;49.37;101743.34;4994238;28;20408;-66
2023/06/10 05:13:10;;;;;;;183.95;65.03;;;;;;;20.56;49.28;101745.06;4995182;28;20022;-67
2023/06/10 05:15:36;;;;;;;182.80;64.60;;;;;;;20.57;49.61;101746.78;4995052;28;20034;-67
2023/06/10 05:18:02;;;;;;;192.45;66.00;;;;;;;20.57;49.43;101737.06;5009483;28;20109;-66
2023/06/10 05:20:28;;;;;;;178.90;64.15;;;;;;;20.57;49.58;101744.13;4992052;28;20524;-67
2023/06/10 05:22:54;;;;;;;181.10;65.82;;;;;;;20.59;49.49;101747.59;4994808;28;20435;-66
2023/06/10 05:25:19;;;;;;;180.30;64.15;;;;;;;20.59;49.68;101744.94;5009588;28;20022;-67
2023/06/10 05:27:44;;;;;;;175.55;63.10;;;;;;;20.59;49.36;101747.59;4995018;28;20081;-67
2023/06/10 05:30:11;;;;;;;183.00;63.60;;;;;;;20.59;49.42;101745.81;4992700;28;20022;-66
2023/06/10 05:32:36;;;;;;;185.98;66.93;;;;;;;20.60;49.40;101746.66;4994778;28;20085;-66
2023/06/10 05:35:03;;;;;;;182.70;64.50;;;;;;;20.61;49.78;101753.69;4994525;28;20030;-67
2023/06/10 05:37:29;;;;;;;184.20;66.20;;;;;;;20.61;49.48;101753.69;4993692;28;20030;-67
2023/06/10 05:39:54;;;;;;;182.88;65.53;;;;;;;20.64;48.96;101750.06;4993864;28;20037;-67
2023/06/10 05:42:19;;;;;;;182.70;65.40;;;;;;;20.63;49.18;101750.97;4993387;28;20034;-67
2023/06/10 05:44:45;;;;;;;186.77;65.43;;;;;;;20.63;49.11;101748.31;4994019;28;20018;-67
2023/06/10 05:47:10;;;;;;;184.85;64.45;;;;;;;20.62;49.50;101736.84;4994965;28;20026;-66
2023/06/10 05:49:35;;;;;;;181.88;64.75;;;;;;;20.64;49.67;101734.97;4992462;28;20029;-67
2023/06/10 05:52:01;;;;;;;182.80;65.95;;;;;;;20.66;49.20;101729.63;4994558;28;20030;-67
2023/06/10 05:54:26;;;;;;;178.88;64.50;;;;;;;20.70;48.87;101737.41;5009393;28;20029;-66
2023/06/10 05:56:51;;;;;;;182.75;64.80;;;;;;;20.75;48.88;101734.56;5009483;28;20022;-66
2023/06/10 05:59:17;;;;;;;185.23;67.65;;;;;;;20.82;49.02;101737.81;4992698;28;20034;-66
2023/06/10 06:01:42;;;;;;;175.25;64.35;;;;;;;20.87;48.78;101738.47;4994150;28;20041;-66
2023/06/10 06:04:07;;;;;;;196.15;67.25;;;;;;;20.89;48.33;101732.19;5009202;28;20053;-67
2023/06/10 06:06:33;;;;;;;181.98;65.03;;;;;;;20.93;48.68;101739.09;4992788;28;20109;-66
2023/06/10 06:08:58;;;;;;;189.25;67.82;;;;;;;20.97;48.07;101733.63;4986583;28;20108;-67
2023/06/10 06:11:25;;;;;;;181.90;65.25;;;;;;;20.98;48.07;101730.91;4993202;28;20047;-67
2023/06/10 06:13:50;;;;;;;183.32;65.38;;;;;;;21.04;48.02;101730.66;4994031;28;20037;-66
2023/06/10 06:18:44;;;;;;;188.52;68.85;;;;;;;21.16;47.50;101725.72;5033010;22;20052;-69
2023/06/10 06:21:10;;;;;;;184.73;68.57;;;;;;;21.28;47.38;101725.16;5013609;28;20021;-69
2023/06/10 06:23:35;;;;;;;186.35;68.70;;;;;;;21.41;47.35;101723.69;5013753;28;20030;-71
2023/06/10 06:26:00;;;;;;;182.13;66.35;;;;;;;21.52;46.97;101714.38;5031668;28;20450;-70
2023/06/10 06:28:28;;;;;;;184.27;65.82;;;;;;;21.62;46.93;101721.00;5020188;28;20033;-70
2023/06/10 06:30:55;;;;;;;182.60;65.68;;;;;;;21.73;46.37;101723.16;5003323;28;20402;-70
2023/06/10 06:33:21;;;;;;;186.00;68.55;;;;;;;21.83;46.32;101720.91;4995898;28;20618;-71
2023/06/10 06:35:46;;;;;;;176.35;65.47;;;;;;;21.90;46.42;101725.03;5013319;28;20380;-70
2023/06/10 06:38:12;;;;;;;184.57;67.05;;;;;;;21.98;46.28;101717.56;5011326;28;20124;-69
2023/06/10 06:40:37;;;;;;;181.45;65.68;;;;;;;22.14;45.51;101722.97;5012348;28;20022;-68
2023/06/10 06:43:02;;;;;;;182.27;67.00;;;;;;;22.34;45.20;101723.81;5011434;28;20030;-70
2023/06/10 06:45:28;;;;;;;182.52;64.85;;;;;;;22.53;44.60;101713.97;5025058;28;20170;-71
2023/06/10 06:47:53;;;;;;;188.82;65.82;;;;;;;22.73;44.78;101715.63;5006951;28;20033;-69
2023/06/10 06:50:19;;;;;;;177.80;65.40;;;;;;;22.93;44.55;101719.06;4998341;28;20438;-70
2023/06/10 06:52:44;;;;;;;183.13;65.07;;;;;;;23.17;43.09;101716.94;5012000;28;20024;-70
2023/06/10 06:55:09;;;;;;;183.85;66.10;;;;;;;23.45;43.32;101718.97;5006152;28;20021;-69
2023/06/10 06:57:36;;;;;;;181.63;67.10;;;;;;;23.80;42.56;101724.19;5027308;28;20030;-71
2023/06/10 07:00:02;;;;;;;188.07;67.38;;;;;;;24.18;40.84;101716.78;4995528;28;20065;-70
2023/06/10 07:02:27;;;;;;;188.10;66.97;;;;;;;24.62;40.58;101716.88;5011549;28;20112;-70
2023/06/10 07:04:55;;;;;;;184.93;67.35;;;;;;;25.08;39.26;101713.22;4995119;28;20129;-71
2023/06/10 07:07:21;;;;;;;195.98;68.68;;;;;;;25.62;38.27;101723.25;5011947;28;20115;-71
2023/06/10 07:09:46;;;;;;;187.00;67.18;;;;;;;26.18;37.02;101721.50;5012834;28;20076;-71
2023/06/10 07:12:11;;;;;;;187.30;68.28;;;;;;;26.54;36.30;101723.53;5011893;28;20033;-71
2023/06/10 07:14:37;;;;;;;186.15;67.60;;;;;;;26.89;35.47;101724.81;5016571;28;20029;-71
2023/06/10 07:17:02;;;;;;;187.27;67.38;;;;;;;27.08;35.31;101724.38;5026008;28;20131;-70
2023/06/10 07:19:28;;;;;;;183.95;66.68;;;;;;;27.33;34.88;101731.53;4986569;28;20089;-71
2023/06/10 07:21:53;;;;;;;190.48;69.90;;;;;;;27.67;33.87;101737.19;5012262;28;20112;-71
2023/06/10 07:24:20;;;;;;;201.55;70.95;;;;;;;27.91;33.72;101733.69;4996329;28;20113;-71
2023/06/10 07:26:45;;;;;;;186.77;71.60;;;;;;;28.01;33.30;101734.75;5013648;28;20084;-71
2023/06/10 07:29:10;;;;;;;193.32;72.55;;;;;;;28.21;33.39;101735.09;4995807;28;20022;-70
2023/06/10 07:31:36;;;;;;;190.90;71.82;;;;;;;28.42;32.87;101728.09;5047916;28;20547;-70
2023/06/10 07:34:01;;;;;;;190.82;71.82;;;;;;;28.60;32.29;101733.03;5021139;28;20410;-71
2023/06/10 07:36:28;;;;;;;187.05;70.82;;;;;;;28.66;32.22;101733.47;5028592;28;20025;-71
2023/06/10 07:38:54;;;;;;;185.68;70.05;;;;;;;28.90;31.38;101737.06;5012858;28;20565;-71
2023/06/10 07:41:20;;;;;;;195.35;71.82;;;;;;;29.05;31.30;101735.00;5012576;28;20029;-71
2023/06/10 07:43:45;;;;;;;193.18;73.68;;;;;;;29.08;31.33;101732.94;5010804;28;20056;-71
2023/06/10 07:46:10;;;;;;;185.70;70.28;;;;;;;29.06;31.68;101732.19;5010868;28;20021;-71
2023/06/10 07:48:36;;;;;;;187.10;68.65;;;;;;;29.05;31.22;101730.47;5010842;28;20088;-69
2023/06/10 07:51:01;;;;;;;183.57;67.65;;;;;;;29.15;31.84;101735.97;5026115;28;20032;-70
2023/06/10 07:53:26;;;;;;;185.00;68.22;;;;;;;28.99;31.97;101728.28;5039219;28;20449;-69
2023/06/10 07:55:52;;;;;;;184.95;68.18;;;;;;;28.90;31.43;101723.63;5014632;28;20447;-69
2023/06/10 07:58:17;;;;;;;184.93;67.60;;;;;;;28.63;32.57;101724.75;5011915;28;20481;-69
2023/06/10 08:00:42;;;;;;;180.50;69.78;;;;;;;28.17;33.49;101721.91;5023815;28;20591;-69
2023/06/10 08:03:08;;;;;;;184.63;68.70;;;;;;;27.57;34.56;101712.88;5041599;28;20598;-69
2023/06/10 08:05:33;;;;;;;187.23;70.18;;;;;;;27.24;35.16;101724.13;5013836;28;20399;-69
2023/06/10 08:07:58;;;;;;;188.25;69.88;;;;;;;26.79;36.00;101725.44;5011944;28;20033;-69
2023/06/10 08:10:24;;;;;;;189.80;70.93;;;;;;;26.25;36.62;101726.34;5012088;28;20034;-70
2023/06/10 08:12:49;;;;;;;191.45;69.03;;;;;;;25.86;37.53;101719.09;5011173;28;20026;-69
2023/06/10 08:15:14;;;;;;;192.98;70.35;;;;;;;25.54;38.59;101724.72;5007334;28;20036;-69
2023/06/10 08:17:40;;;;;;;179.65;67.82;;;;;;;25.24;39.15;101731.00;5009256;28;20049;-70
2023/06/10 08:20:06;;;;;;;188.48;70.22;;;;;;;24.95;39.54;101729.16;5017721;28;20061;-69
2023/06/10 08:22:31;;;;;;;185.80;68.15;;;;;;;24.75;40.34;101732.19;5019956;28;20053;-69
2023/06/10 08:24:57;;;;;;;189.23;70.25;;;;;;;24.59;40.81;101732.19;5009434;28;20038;-69
2023/06/10 08:27:22;;;;;;;189.98;70.32;;;;;;;24.35;41.51;101730.03;5001990;28;20553;-71
2023/06/10 08:29:47;;;;;;;190.18;68.95;;;;;;;24.21;41.23;101728.13;5010864;28;20066;-69
2023/06/10 08:32:13;;;;;;;186.60;69.32;;;;;;;24.06;41.55;101729.88;5020054;28;20056;-70
2023/06/10 08:34:39;;;;;;;190.27;71.80;;;;;;;23.87;42.03;101729.16;5016958;28;20025;-69
2023/06/10 08:37:04;;;;;;;186.82;70.50;;;;;;;23.72;43.05;101737.06;5016516;28;20487;-69
2023/06/10 08:39:32;;;;;;;189.30;71.18;;;;;;;23.57;43.40;101733.47;5013645;28;20064;-69
2023/06/10 08:42:24;;;;;;;193.80;71.25;;;;;;;23.50;42.81;101736.53;5013190;28;20026;-69
2023/06/10 08:44:55;;;;;;;187.93;69.20;;;;;;;23.36;43.24;101732.81;5013853;28;20032;-70
2023/06/10 08:47:23;;;;;;;193.02;69.45;;;;;;;23.29;44.10;101731.41;5013045;28;20033;-70
2023/06/10 08:49:48;;;;;;;194.57;70.63;;;;;;;23.25;43.97;101737.84;5029814;28;20047;-69
2023/06/10 08:52:18;;;;;;;190.82;69.45;;;;;;;23.16;44.46;101743.69;5033790;28;20017;-69
2023/06/10 08:54:56;;;;;;;184.20;67.38;;;;;;;23.12;44.50;101727.84;5017825;28;20029;-70
2023/06/10 08:57:22;;;;;;;190.80;69.32;;;;;;;23.09;44.23;101727.97;5014193;28;20437;-69
2023/06/10 08:59:48;;;;;;;192.23;69.22;;;;;;;23.05;45.03;101721.06;5029351;28;20112;-69
2023/06/10 09:02:14;;;;;;;182.52;67.43;;;;;;;23.03;44.90;101724.75;5033469;28;20033;-69
2023/06/10 09:04:42;;;;;;;192.05;69.30;;;;;;;23.00;44.35;101728.47;5034929;28;20502;-69
2023/06/10 09:07:08;;;;;;;186.10;67.80;;;;;;;22.98;45.07;101732.16;5013219;28;20030;-69
2023/06/10 09:09:34;;;;;;;186.02;67.22;;;;;;;22.96;45.22;101730.41;5013542;28;20029;-69
2023/06/10 09:12:00;;;;;;;186.38;68.95;;;;;;;22.91;45.36;101723.63;5013694;28;20108;-71
2023/06/10 09:14:25;;;;;;;191.18;70.70;;;;;;;22.88;44.70;101718.47;5025211;28;20183;-70
2023/06/10 09:16:51;;;;;;;187.10;68.43;;;;;;;22.89;45.00;101720.16;5020564;28;20037;-71
2023/06/10 09:19:16;;;;;;;187.18;68.05;;;;;;;22.87;45.35;101722.06;5013576;28;20045;-71
2023/06/10 09:21:42;;;;;;;184.82;67.90;;;;;;;22.84;44.66;101723.06;5013489;28;20026;-71
2023/06/10 09:24:07;;;;;;;198.18;69.22;;;;;;;22.82;44.57;101718.75;5023387;28;20416;-70
2023/06/10 09:26:32;;;;;;;186.95;69.25;;;;;;;22.79;45.78;101717.97;5038558;28;20056;-70
2023/06/10 09:29:05;;;;;;;186.15;68.05;;;;;;;22.77;45.29;101711.03;5020996;28;20030;-71
2023/06/10 09:31:31;;;;;;;187.23;68.80;;;;;;;22.77;44.81;101714.53;5050012;28;20033;-70
2023/06/10 09:34:13;;;;;;;188.23;69.07;;;;;;;22.73;45.27;101718.31;5025678;28;20048;-71
2023/06/10 09:36:40;;;;;;;181.27;67.95;;;;;;;22.71;45.36;101709.50;5012400;28;20065;-71
2023/06/10 09:39:06;;;;;;;186.52;67.05;;;;;;;22.70;45.51;101710.47;5014409;28;20029;-71
2023/06/10 09:41:33;;;;;;;184.23;67.22;;;;;;;22.70;45.38;101709.59;5013049;28;20026;-70
2023/06/10 09:43:59;;;;;;;187.73;67.57;;;;;;;22.68;45.85;101703.50;5021477;28;20156;-70
2023/06/10 09:46:31;;;;;;;185.68;68.28;;;;;;;22.67;45.57;101710.59;5037812;28;20112;-70
2023/06/10 09:48:57;;;;;;;193.18;69.10;;;;;;;22.64;45.76;101702.78;5022462;28;20047;-71
2023/06/10 09:51:23;;;;;;;188.30;68.57;;;;;;;22.64;45.48;101702.78;5051286;28;20083;-71
2023/06/10 09:53:50;;;;;;;185.07;67.32;;;;;;;22.60;46.29;101706.53;5029913;28;20030;-70
2023/06/10 09:56:16;;;;;;;183.02;67.53;;;;;;;22.59;46.02;101705.69;4996185;28;20105;-70
2023/06/10 09:58:43;;;;;;;187.95;68.72;;;;;;;22.57;45.56;101715.53;5013975;28;20108;-70
2023/06/10 10:01:10;;;;;;;177.77;66.20;;;;;;;22.57;46.28;101714.69;5014174;28;20030;-70
2023/06/10 10:03:46;;;;;;;191.10;66.78;;;;;;;22.56;45.59;101710.31;5015549;28;20056;-68
2023/06/10 10:06:12;;;;;;;182.02;65.32;;;;;;;22.53;45.53;101707.81;5025464;28;20041;-71
2023/06/10 10:08:37;;;;;;;186.30;67.97;;;;;;;22.52;45.67;101711.41;5013650;28;20159;-69
2023/06/10 10:11:03;;;;;;;183.50;66.95;;;;;;;22.49;45.73;101706.25;5013851;28;20057;-69
2023/06/10 10:13:29;;;;;;;183.88;66.95;;;;;;;22.49;46.52;101717.75;5014084;28;20411;-69
2023/06/10 10:15:56;;;;;;;184.80;66.45;;;;;;;22.48;45.79;101715.16;5044143;28;20032;-70
2023/06/10 10:18:28;;;;;;;184.88;67.30;;;;;;;22.47;46.25;101714.31;5015402;28;20367;-69
2023/06/10 10:20:55;;;;;;;192.27;68.88;;;;;;;22.43;46.28;101708.25;5048432;28;20030;-70
2023/06/10 10:23:32;;;;;;;185.88;67.80;;;;;;;22.43;46.32;101716.25;5032597;28;20029;-69
2023/06/10 10:26:00;;;;;;;190.75;69.07;;;;;;;22.39;46.15;101709.34;5026038;28;20026;-70
2023/06/10 10:28:39;;;;;;;186.48;67.72;;;;;;;22.37;46.04;101713.88;5014613;28;20021;-70
2023/06/10 10:31:10;;;;;;;186.63;68.65;;;;;;;22.37;46.55;101711.22;5048381;28;20033;-69
2023/06/10 10:33:54;;;;;;;186.10;68.10;;;;;;;22.37;46.80;101710.38;5046443;28;20386;-70
2023/06/10 10:36:19;;;;;;;176.50;65.87;;;;;;;22.34;46.56;101699.84;5025169;28;20487;-70
2023/06/10 10:38:45;;;;;;;183.80;66.25;;;;;;;22.32;46.82;101705.25;5019300;28;20368;-70
2023/06/10 10:41:11;;;;;;;183.38;66.38;;;;;;;22.31;47.14;101703.53;5048355;28;20112;-69
2023/06/10 10:43:36;;;;;;;183.20;67.75;;;;;;;22.30;46.57;101701.78;5048153;28;20163;-69
2023/06/10 10:46:08;;;;;;;183.77;66.18;;;;;;;22.30;46.45;101696.47;5042804;28;20124;-70
2023/06/10 10:48:37;;;;;;;181.77;65.10;;;;;;;22.26;46.91;101705.53;5010100;28;20021;-70
2023/06/10 10:51:02;;;;;;;183.65;66.90;;;;;;;22.26;47.41;101705.53;5011825;28;20103;-69
2023/06/10 10:53:28;;;;;;;183.98;66.55;;;;;;;22.24;46.90;101708.28;5012924;28;20079;-70
2023/06/10 10:56:07;;;;;;;189.15;67.78;;;;;;;22.25;46.82;101709.13;5011921;28;20037;-69
2023/06/10 10:58:33;;;;;;;177.57;65.45;;;;;;;22.21;47.01;101703.13;4998257;28;20065;-69
2023/06/10 11:00:58;;;;;;;189.93;68.70;;;;;;;22.21;46.68;101694.25;5044397;28;20033;-70